sensor_id;sensor_type;location;lat;lon;timestamp;pressure;altitude;pressure_sealevel;temperature;humidity
49973;BME280;65693;49.798;10.968;2023-03-14T00:01:55;96321.94;;;10.05;67.28
49973;BME280;65693;49.798;10.968;2023-03-14T00:04:22;96337.97;;;10.03;67.60
49973;BME280;65693;49.798;10.968;2023-03-14T00:06:49;96352.03;;;10.04;67.27
49973;BME280;65693;49.798;10.968;2023-03-14T00:09:24;96356.34;;;10.05;67.50
49973;BME280;65693;49.798;10.968;2023-03-14T00:11:55;96359.81;;;10.05;67.11
49973;BME280;65693;49.798;10.968;2023-03-14T00:14:22;96370.56;;;10.04;67.36
49973;BME280;65693;49.798;10.968;2023-03-14T00:16:48;96373.22;;;10.04;67.28
49973;BME280;65693;49.798;10.968;2023-03-14T00:19:15;96372.38;;;10.03;67.36
49973;BME280;65693;49.798;10.968;2023-03-14T00:21:45;96370.69;;;10.02;67.19
49973;BME280;65693;49.798;10.968;2023-03-14T00:24:20;96375.44;;;9.99;67.50
49973;BME280;65693;49.798;10.968;2023-03-14T00:26:48;96388.53;;;10.00;67.52
49973;BME280;65693;49.798;10.968;2023-03-14T00:29:17;96398.25;;;10.00;67.32
49973;BME280;65693;49.798;10.968;2023-03-14T00:31:43;96407.19;;;9.99;67.49
49973;BME280;65693;49.798;10.968;2023-03-14T00:34:10;96408.16;;;9.97;67.60
49973;BME280;65693;49.798;10.968;2023-03-14T00:36:39;96412.63;;;9.97;67.48
49973;BME280;65693;49.798;10.968;2023-03-14T00:39:05;96418.06;;;9.95;67.46
49973;BME280;65693;49.798;10.968;2023-03-14T00:41:33;96421.66;;;9.94;67.17
49973;BME280;65693;49.798;10.968;2023-03-14T00:43:59;96426.97;;;9.94;67.24
49973;BME280;65693;49.798;10.968;2023-03-14T00:46:26;96430.59;;;9.93;67.40
49973;BME280;65693;49.798;10.968;2023-03-14T00:48:54;96428.91;;;9.92;67.26
49973;BME280;65693;49.798;10.968;2023-03-14T00:51:24;96423.63;;;9.92;67.40
49973;BME280;65693;49.798;10.968;2023-03-14T00:53:50;96415.81;;;9.91;67.28
49973;BME280;65693;49.798;10.968;2023-03-14T00:56:17;96420.41;;;9.89;67.45
49973;BME280;65693;49.798;10.968;2023-03-14T00:58:56;96415.81;;;9.91;67.48
49973;BME280;65693;49.798;10.968;2023-03-14T01:01:27;96413.44;;;9.88;67.35
49973;BME280;65693;49.798;10.968;2023-03-14T01:03:56;96418.75;;;9.88;67.33
49973;BME280;65693;49.798;10.968;2023-03-14T01:06:24;96421.38;;;9.88;67.43
49973;BME280;65693;49.798;10.968;2023-03-14T01:08:51;96426.84;;;9.86;67.62
49973;BME280;65693;49.798;10.968;2023-03-14T01:11:22;96432.81;;;9.88;67.52
49973;BME280;65693;49.798;10.968;2023-03-14T01:13:53;96431.97;;;9.88;67.83
49973;BME280;65693;49.798;10.968;2023-03-14T01:16:24;96430.31;;;9.87;67.60
49973;BME280;65693;49.798;10.968;2023-03-14T01:18:54;96428.78;;;9.84;67.43
49973;BME280;65693;49.798;10.968;2023-03-14T01:21:24;96421.38;;;9.88;67.47
49973;BME280;65693;49.798;10.968;2023-03-14T01:24:07;96423.34;;;9.86;67.48
49973;BME280;65693;49.798;10.968;2023-03-14T01:26:35;96412.75;;;9.86;67.44
49973;BME280;65693;49.798;10.968;2023-03-14T01:29:10;96422.66;;;9.83;67.20
49973;BME280;65693;49.798;10.968;2023-03-14T01:31:39;96418.19;;;9.84;67.30
49973;BME280;65693;49.798;10.968;2023-03-14T01:34:09;96408.56;;;9.83;67.47
49973;BME280;65693;49.798;10.968;2023-03-14T01:36:38;96409.53;;;9.82;67.70
49973;BME280;65693;49.798;10.968;2023-03-14T01:39:13;96405.22;;;9.81;67.51
49973;BME280;65693;49.798;10.968;2023-03-14T01:41:41;96392.16;;;9.79;67.30
49973;BME280;65693;49.798;10.968;2023-03-14T01:44:15;96392.16;;;9.79;67.35
49973;BME280;65693;49.798;10.968;2023-03-14T01:46:46;96391.31;;;9.79;67.67
49973;BME280;65693;49.798;10.968;2023-03-14T01:49:25;96381.84;;;9.76;67.52
49973;BME280;65693;49.798;10.968;2023-03-14T01:51:59;96389.78;;;9.76;67.58
49973;BME280;65693;49.798;10.968;2023-03-14T01:54:34;96396.88;;;9.76;67.58
49973;BME280;65693;49.798;10.968;2023-03-14T01:57:08;96394.22;;;9.76;67.48
49973;BME280;65693;49.798;10.968;2023-03-14T01:59:48;96391.59;;;9.76;67.39
49973;BME280;65693;49.798;10.968;2023-03-14T02:02:17;96389.91;;;9.75;67.49
49973;BME280;65693;49.798;10.968;2023-03-14T02:04:43;96393.41;;;9.75;67.25
49973;BME280;65693;49.798;10.968;2023-03-14T02:07:14;96394.50;;;9.73;67.47
49973;BME280;65693;49.798;10.968;2023-03-14T02:09:42;96376.00;;;9.73;67.78
49973;BME280;65693;49.798;10.968;2023-03-14T02:12:16;96375.00;;;9.74;67.52
49973;BME280;65693;49.798;10.968;2023-03-14T02:14:50;96383.06;;;9.72;67.71
49973;BME280;65693;49.798;10.968;2023-03-14T02:17:19;96376.00;;;9.73;67.55
49973;BME280;65693;49.798;10.968;2023-03-14T02:19:57;96372.38;;;9.74;67.28
49973;BME280;65693;49.798;10.968;2023-03-14T02:22:28;96380.44;;;9.72;67.29
49973;BME280;65693;49.798;10.968;2023-03-14T02:25:08;96370.69;;;9.73;67.35
49973;BME280;65693;49.798;10.968;2023-03-14T02:27:36;96360.41;;;9.70;67.41
49973;BME280;65693;49.798;10.968;2023-03-14T02:30:08;96338.38;;;9.69;67.66
49973;BME280;65693;49.798;10.968;2023-03-14T02:32:43;96336.03;;;9.66;67.33
49973;BME280;65693;49.798;10.968;2023-03-14T02:35:12;96334.06;;;9.68;67.33
49973;BME280;65693;49.798;10.968;2023-03-14T02:37:41;96322.81;;;9.66;67.54
49973;BME280;65693;49.798;10.968;2023-03-14T02:40:10;96326.13;;;9.68;67.48
49973;BME280;65693;49.798;10.968;2023-03-14T02:42:38;96317.63;;;9.64;67.50
49973;BME280;65693;49.798;10.968;2023-03-14T02:45:32;96316.66;;;9.65;67.33
49973;BME280;65693;49.798;10.968;2023-03-14T02:48:02;96301.66;;;9.66;67.68
49973;BME280;65693;49.798;10.968;2023-03-14T02:50:33;96305.25;;;9.65;67.38
49973;BME280;65693;49.798;10.968;2023-03-14T02:53:01;96309.69;;;9.64;67.54
49973;BME280;65693;49.798;10.968;2023-03-14T02:55:29;96301.78;;;9.64;67.71
49973;BME280;65693;49.798;10.968;2023-03-14T02:58:02;96310.56;;;9.65;67.58
49973;BME280;65693;49.798;10.968;2023-03-14T03:00:30;96297.47;;;9.63;67.17
49973;BME280;65693;49.798;10.968;2023-03-14T03:02:59;96291.34;;;9.63;67.41
49973;BME280;65693;49.798;10.968;2023-03-14T03:05:26;96294.97;;;9.62;67.62
49973;BME280;65693;49.798;10.968;2023-03-14T03:07:55;96307.22;;;9.63;67.35
49973;BME280;65693;49.798;10.968;2023-03-14T03:10:24;96309.88;;;9.63;67.66
49973;BME280;65693;49.798;10.968;2023-03-14T03:12:53;96318.91;;;9.60;67.59
49973;BME280;65693;49.798;10.968;2023-03-14T03:15:28;96320.56;;;9.61;67.58
49973;BME280;65693;49.798;10.968;2023-03-14T03:17:59;96312.78;;;9.60;67.75
49973;BME280;65693;49.798;10.968;2023-03-14T03:20:25;96313.78;;;9.59;67.60
49973;BME280;65693;49.798;10.968;2023-03-14T03:22:53;96312.06;;;9.58;67.22
49973;BME280;65693;49.798;10.968;2023-03-14T03:25:23;96295.38;;;9.57;67.65
49973;BME280;65693;49.798;10.968;2023-03-14T03:27:50;96298.84;;;9.58;67.36
49973;BME280;65693;49.798;10.968;2023-03-14T03:30:17;96295.38;;;9.57;67.64
49973;BME280;65693;49.798;10.968;2023-03-14T03:32:47;96280.50;;;9.56;67.29
49973;BME280;65693;49.798;10.968;2023-03-14T03:35:15;96271.88;;;9.54;67.42
49973;BME280;65693;49.798;10.968;2023-03-14T03:37:44;96277.16;;;9.54;67.44
49973;BME280;65693;49.798;10.968;2023-03-14T03:40:12;96262.97;;;9.55;67.33
49973;BME280;65693;49.798;10.968;2023-03-14T03:42:40;96266.28;;;9.57;67.36
49973;BME280;65693;49.798;10.968;2023-03-14T03:45:10;96268.38;;;9.53;67.69
49973;BME280;65693;49.798;10.968;2023-03-14T03:47:40;96265.72;;;9.53;67.52
49973;BME280;65693;49.798;10.968;2023-03-14T03:50:10;96272.84;;;9.53;67.48
49973;BME280;65693;49.798;10.968;2023-03-14T03:52:38;96266.56;;;9.54;67.47
49973;BME280;65693;49.798;10.968;2023-03-14T03:55:08;96271.88;;;9.54;67.45
49973;BME280;65693;49.798;10.968;2023-03-14T03:57:38;96272.97;;;9.51;67.21
49973;BME280;65693;49.798;10.968;2023-03-14T04:00:09;96285.22;;;9.52;67.28
49973;BME280;65693;49.798;10.968;2023-03-14T04:02:38;96278.13;;;9.53;67.50
49973;BME280;65693;49.798;10.968;2023-03-14T04:05:08;96280.09;;;9.51;67.10
49973;BME280;65693;49.798;10.968;2023-03-14T04:07:47;96279.94;;;9.52;67.30
49973;BME280;65693;49.798;10.968;2023-03-14T04:10:15;96262.38;;;9.51;67.49
49973;BME280;65693;49.798;10.968;2023-03-14T04:12:50;96266.13;;;9.49;67.30
49973;BME280;65693;49.798;10.968;2023-03-14T04:15:17;96258.94;;;9.51;67.47
49973;BME280;65693;49.798;10.968;2023-03-14T04:17:43;96254.59;;;9.50;67.58
49973;BME280;65693;49.798;10.968;2023-03-14T04:20:17;96250.16;;;9.50;67.60
49973;BME280;65693;49.798;10.968;2023-03-14T04:22:45;96232.75;;;9.48;67.35
49973;BME280;65693;49.798;10.968;2023-03-14T04:25:12;96231.06;;;9.47;67.50
49973;BME280;65693;49.798;10.968;2023-03-14T04:27:43;96245.13;;;9.47;67.43
49973;BME280;65693;49.798;10.968;2023-03-14T04:30:18;96239.69;;;9.49;67.53
49973;BME280;65693;49.798;10.968;2023-03-14T04:32:47;96239.84;;;9.47;67.24
49973;BME280;65693;49.798;10.968;2023-03-14T04:35:14;96241.81;;;9.45;67.55
49973;BME280;65693;49.798;10.968;2023-03-14T04:37:44;96225.09;;;9.45;67.63
49973;BME280;65693;49.798;10.968;2023-03-14T04:40:15;96216.34;;;9.44;67.44
49973;BME280;65693;49.798;10.968;2023-03-14T04:42:46;96218.13;;;9.44;67.62
49973;BME280;65693;49.798;10.968;2023-03-14T04:45:14;96226.75;;;9.46;67.54
49973;BME280;65693;49.798;10.968;2023-03-14T04:47:41;96218.00;;;9.45;67.45
49973;BME280;65693;49.798;10.968;2023-03-14T04:50:08;96219.00;;;9.44;67.28
49973;BME280;65693;49.798;10.968;2023-03-14T04:52:38;96213.81;;;9.43;67.56
49973;BME280;65693;49.798;10.968;2023-03-14T04:55:08;96217.44;;;9.42;67.64
49973;BME280;65693;49.798;10.968;2023-03-14T04:57:35;96217.56;;;9.40;67.26
49973;BME280;65693;49.798;10.968;2023-03-14T05:00:02;96213.13;;;9.40;67.49
49973;BME280;65693;49.798;10.968;2023-03-14T05:02:33;96220.94;;;9.42;67.81
49973;BME280;65693;49.798;10.968;2023-03-14T05:05:02;96220.09;;;9.42;67.50
49973;BME280;65693;49.798;10.968;2023-03-14T05:07:31;96223.72;;;9.40;67.74
49973;BME280;65693;49.798;10.968;2023-03-14T05:10:09;96225.66;;;9.38;67.23
49973;BME280;65693;49.798;10.968;2023-03-14T05:12:40;96223.03;;;9.38;67.24
49973;BME280;65693;49.798;10.968;2023-03-14T05:15:08;96218.56;;;9.39;67.19
49973;BME280;65693;49.798;10.968;2023-03-14T05:17:36;96213.41;;;9.37;67.35
49973;BME280;65693;49.798;10.968;2023-03-14T05:20:03;96210.91;;;9.36;67.44
49973;BME280;65693;49.798;10.968;2023-03-14T05:22:34;96210.78;;;9.37;67.55
49973;BME280;65693;49.798;10.968;2023-03-14T05:25:01;96212.84;;;9.34;67.47
49973;BME280;65693;49.798;10.968;2023-03-14T05:27:34;96213.53;;;9.36;67.46
49973;BME280;65693;49.798;10.968;2023-03-14T05:30:07;96224.81;;;9.38;67.50
49973;BME280;65693;49.798;10.968;2023-03-14T05:32:35;96215.38;;;9.35;67.57
49973;BME280;65693;49.798;10.968;2023-03-14T05:35:04;96224.13;;;9.36;67.19
49973;BME280;65693;49.798;10.968;2023-03-14T05:37:31;96216.19;;;9.36;67.25
49973;BME280;65693;49.798;10.968;2023-03-14T05:39:59;96213.53;;;9.36;67.19
49973;BME280;65693;49.798;10.968;2023-03-14T05:42:42;96209.38;;;9.33;67.12
49973;BME280;65693;49.798;10.968;2023-03-14T05:45:11;96204.94;;;9.34;67.12
49973;BME280;65693;49.798;10.968;2023-03-14T05:47:41;96197.84;;;9.34;67.52
49973;BME280;65693;49.798;10.968;2023-03-14T05:50:09;96203.38;;;9.31;67.03
49973;BME280;65693;49.798;10.968;2023-03-14T05:52:45;96202.28;;;9.34;67.57
49973;BME280;65693;49.798;10.968;2023-03-14T05:55:13;96193.50;;;9.33;67.24
49973;BME280;65693;49.798;10.968;2023-03-14T05:57:46;96192.81;;;9.31;67.21
49973;BME280;65693;49.798;10.968;2023-03-14T06:00:17;96188.38;;;9.32;67.24
49973;BME280;65693;49.798;10.968;2023-03-14T06:02:52;96184.88;;;9.31;67.32
49973;BME280;65693;49.798;10.968;2023-03-14T06:05:21;96177.94;;;9.30;67.51
49973;BME280;65693;49.798;10.968;2023-03-14T06:07:55;96174.47;;;9.30;67.51
49973;BME280;65693;49.798;10.968;2023-03-14T06:10:23;96182.41;;;9.30;66.86
49973;BME280;65693;49.798;10.968;2023-03-14T06:12:59;96177.09;;;9.30;66.72
49973;BME280;65693;49.798;10.968;2023-03-14T06:15:29;96177.63;;;9.33;66.97
49973;BME280;65693;49.798;10.968;2023-03-14T06:18:09;96174.19;;;9.33;67.04
49973;BME280;65693;49.798;10.968;2023-03-14T06:20:39;96170.97;;;9.29;67.01
49973;BME280;65693;49.798;10.968;2023-03-14T06:23:08;96181.56;;;9.29;67.31
49973;BME280;65693;49.798;10.968;2023-03-14T06:25:37;96176.94;;;9.31;67.30
49973;BME280;65693;49.798;10.968;2023-03-14T06:28:21;96181.41;;;9.31;67.44
49973;BME280;65693;49.798;10.968;2023-03-14T06:30:51;96184.19;;;9.29;67.26
49973;BME280;65693;49.798;10.968;2023-03-14T06:33:20;96184.19;;;9.29;67.36
49973;BME280;65693;49.798;10.968;2023-03-14T06:35:46;96187.00;;;9.28;67.36
49973;BME280;65693;49.798;10.968;2023-03-14T06:38:27;96181.72;;;9.28;67.39
49973;BME280;65693;49.798;10.968;2023-03-14T06:40:54;96194.91;;;9.28;67.55
49973;BME280;65693;49.798;10.968;2023-03-14T06:43:35;96186.16;;;9.27;67.57
49973;BME280;65693;49.798;10.968;2023-03-14T06:46:04;96180.84;;;9.27;67.53
49973;BME280;65693;49.798;10.968;2023-03-14T06:48:34;96182.53;;;9.28;67.21
49973;BME280;65693;49.798;10.968;2023-03-14T06:51:04;96180.84;;;9.27;66.99
49973;BME280;65693;49.798;10.968;2023-03-14T06:53:34;96180.03;;;9.27;67.29
49973;BME280;65693;49.798;10.968;2023-03-14T06:56:04;96174.88;;;9.25;67.14
49973;BME280;65693;49.798;10.968;2023-03-14T06:58:32;96168.75;;;9.24;67.47
49973;BME280;65693;49.798;10.968;2023-03-14T07:01:00;96173.34;;;9.22;67.33
49973;BME280;65693;49.798;10.968;2023-03-14T07:03:28;96181.97;;;9.24;67.19
49973;BME280;65693;49.798;10.968;2023-03-14T07:05:57;96165.28;;;9.24;67.45
49973;BME280;65693;49.798;10.968;2023-03-14T07:08:25;96168.06;;;9.22;67.51
49973;BME280;65693;49.798;10.968;2023-03-14T07:10:51;96169.59;;;9.25;67.31
49973;BME280;65693;49.798;10.968;2023-03-14T07:13:17;96158.16;;;9.24;67.49
49973;BME280;65693;49.798;10.968;2023-03-14T07:15:46;96159.16;;;9.23;67.24
49973;BME280;65693;49.798;10.968;2023-03-14T07:18:22;96156.66;;;9.22;67.13
49973;BME280;65693;49.798;10.968;2023-03-14T07:20:52;96153.16;;;9.21;67.14
49973;BME280;65693;49.798;10.968;2023-03-14T07:23:19;96152.06;;;9.24;67.02
49973;BME280;65693;49.798;10.968;2023-03-14T07:25:46;96155.53;;;9.24;67.00
49973;BME280;65693;49.798;10.968;2023-03-14T07:28:12;96156.66;;;9.22;67.00
49973;BME280;65693;49.798;10.968;2023-03-14T07:30:39;96168.22;;;9.21;67.39
49973;BME280;65693;49.798;10.968;2023-03-14T07:33:10;96165.41;;;9.22;66.95
49973;BME280;65693;49.798;10.968;2023-03-14T07:35:46;96166.53;;;9.20;67.48
49973;BME280;65693;49.798;10.968;2023-03-14T07:38:17;96170.69;;;9.22;67.35
49973;BME280;65693;49.798;10.968;2023-03-14T07:40:57;96166.25;;;9.23;67.16
49973;BME280;65693;49.798;10.968;2023-03-14T07:43:27;96174.19;;;9.23;67.16
49973;BME280;65693;49.798;10.968;2023-03-14T07:45:54;96175.97;;;9.22;67.60
49973;BME280;65693;49.798;10.968;2023-03-14T07:48:21;96184.88;;;9.21;67.43
49973;BME280;65693;49.798;10.968;2023-03-14T07:50:51;96181.28;;;9.22;66.98
49973;BME280;65693;49.798;10.968;2023-03-14T07:53:23;96182.41;;;9.20;67.22
49973;BME280;65693;49.798;10.968;2023-03-14T07:55:53;96182.41;;;9.20;67.26
49973;BME280;65693;49.798;10.968;2023-03-14T07:58:22;96178.91;;;9.19;67.15
49973;BME280;65693;49.798;10.968;2023-03-14T08:00:54;96173.63;;;9.19;67.28
49973;BME280;65693;49.798;10.968;2023-03-14T08:03:32;96178.78;;;9.21;67.14
49973;BME280;65693;49.798;10.968;2023-03-14T08:06:06;96181.56;;;9.19;67.42
49973;BME280;65693;49.798;10.968;2023-03-14T08:08:32;96186.84;;;9.19;67.22
49973;BME280;65693;49.798;10.968;2023-03-14T08:11:04;96182.66;;;9.17;67.21
49973;BME280;65693;49.798;10.968;2023-03-14T08:13:35;96193.09;;;9.18;67.67
49973;BME280;65693;49.798;10.968;2023-03-14T08:16:05;96187.94;;;9.17;67.52
49973;BME280;65693;49.798;10.968;2023-03-14T08:18:33;96183.50;;;9.17;67.27
49973;BME280;65693;49.798;10.968;2023-03-14T08:20:59;96185.28;;;9.17;67.10
49973;BME280;65693;49.798;10.968;2023-03-14T08:23:26;96188.78;;;9.17;67.13
49973;BME280;65693;49.798;10.968;2023-03-14T08:25:52;96182.53;;;9.18;67.29
49973;BME280;65693;49.798;10.968;2023-03-14T08:28:34;96188.91;;;9.16;67.50
49973;BME280;65693;49.798;10.968;2023-03-14T08:31:05;96187.94;;;9.17;67.44
49973;BME280;65693;49.798;10.968;2023-03-14T08:33:41;96186.03;;;9.19;67.25
49973;BME280;65693;49.798;10.968;2023-03-14T08:36:08;96184.47;;;9.16;67.28
49973;BME280;65693;49.798;10.968;2023-03-14T08:38:35;96182.81;;;9.15;67.55
49973;BME280;65693;49.798;10.968;2023-03-14T08:41:09;96194.94;;;9.18;67.47
49973;BME280;65693;49.798;10.968;2023-03-14T08:43:38;96187.13;;;9.16;67.15
49973;BME280;65693;49.798;10.968;2023-03-14T08:46:06;96185.28;;;9.17;67.35
49973;BME280;65693;49.798;10.968;2023-03-14T08:48:35;96184.47;;;9.16;67.35
49973;BME280;65693;49.798;10.968;2023-03-14T08:51:13;96181.72;;;9.18;67.63
49973;BME280;65693;49.798;10.968;2023-03-14T08:53:43;96185.28;;;9.17;67.43
49973;BME280;65693;49.798;10.968;2023-03-14T08:56:13;96174.72;;;9.17;67.39
49973;BME280;65693;49.798;10.968;2023-03-14T08:58:42;96169.44;;;9.17;67.41
49973;BME280;65693;49.798;10.968;2023-03-14T09:01:10;96174.59;;;9.18;67.16
49973;BME280;65693;49.798;10.968;2023-03-14T09:03:39;96156.94;;;9.19;67.15
49973;BME280;65693;49.798;10.968;2023-03-14T09:06:13;96158.88;;;9.17;67.67
49973;BME280;65693;49.798;10.968;2023-03-14T09:08:47;96153.59;;;9.17;67.58
49973;BME280;65693;49.798;10.968;2023-03-14T09:11:13;96162.25;;;9.19;67.16
49973;BME280;65693;49.798;10.968;2023-03-14T09:13:40;96167.53;;;9.19;67.30
49973;BME280;65693;49.798;10.968;2023-03-14T09:16:08;96163.06;;;9.19;67.48
49973;BME280;65693;49.798;10.968;2023-03-14T09:18:35;96159.59;;;9.19;67.37
49973;BME280;65693;49.798;10.968;2023-03-14T09:21:03;96167.53;;;9.19;67.44
49973;BME280;65693;49.798;10.968;2023-03-14T09:23:45;96164.72;;;9.20;67.33
49973;BME280;65693;49.798;10.968;2023-03-14T09:26:12;96172.81;;;9.19;67.42
49973;BME280;65693;49.798;10.968;2023-03-14T09:28:40;96162.25;;;9.19;67.24
49973;BME280;65693;49.798;10.968;2023-03-14T09:31:10;96159.59;;;9.19;67.47
49973;BME280;65693;49.798;10.968;2023-03-14T09:33:39;96155.28;;;9.18;67.26
49973;BME280;65693;49.798;10.968;2023-03-14T09:36:08;96153.47;;;9.18;67.37
49973;BME280;65693;49.798;10.968;2023-03-14T09:38:38;96155.41;;;9.16;67.46
49973;BME280;65693;49.798;10.968;2023-03-14T09:41:14;96158.88;;;9.17;67.21
49973;BME280;65693;49.798;10.968;2023-03-14T09:43:46;96160.56;;;9.18;67.14
49973;BME280;65693;49.798;10.968;2023-03-14T09:46:18;96158.75;;;9.18;67.54
49973;BME280;65693;49.798;10.968;2023-03-14T09:48:49;96157.94;;;9.18;67.23
49973;BME280;65693;49.798;10.968;2023-03-14T09:51:19;96156.94;;;9.19;67.34
49973;BME280;65693;49.798;10.968;2023-03-14T09:54:01;96156.22;;;9.17;67.17
49973;BME280;65693;49.798;10.968;2023-03-14T09:56:32;96157.94;;;9.18;67.19
49973;BME280;65693;49.798;10.968;2023-03-14T09:59:00;96157.94;;;9.18;67.43
49973;BME280;65693;49.798;10.968;2023-03-14T10:01:29;96153.59;;;9.17;67.18
49973;BME280;65693;49.798;10.968;2023-03-14T10:03:57;96156.09;;;9.18;67.15
49973;BME280;65693;49.798;10.968;2023-03-14T10:06:28;96157.94;;;9.18;67.61
49973;BME280;65693;49.798;10.968;2023-03-14T10:09:02;96157.75;;;9.19;67.31
49973;BME280;65693;49.798;10.968;2023-03-14T10:11:28;96161.50;;;9.17;67.27
49973;BME280;65693;49.798;10.968;2023-03-14T10:14:06;96160.56;;;9.18;67.42
49973;BME280;65693;49.798;10.968;2023-03-14T10:16:34;96163.34;;;9.16;67.48
49973;BME280;65693;49.798;10.968;2023-03-14T10:19:03;96167.78;;;9.16;67.05
49973;BME280;65693;49.798;10.968;2023-03-14T10:21:36;96174.47;;;9.20;67.81
49973;BME280;65693;49.798;10.968;2023-03-14T10:24:19;96167.53;;;9.19;67.31
49973;BME280;65693;49.798;10.968;2023-03-14T10:26:49;96183.38;;;9.19;67.47
49973;BME280;65693;49.798;10.968;2023-03-14T10:29:16;96187.00;;;9.18;67.59
49973;BME280;65693;49.798;10.968;2023-03-14T10:31:50;96190.34;;;9.20;67.61
49973;BME280;65693;49.798;10.968;2023-03-14T10:34:23;96186.84;;;9.19;67.63
49973;BME280;65693;49.798;10.968;2023-03-14T10:36:55;96183.38;;;9.19;67.34
49973;BME280;65693;49.798;10.968;2023-03-14T10:39:37;96192.97;;;9.20;67.29
49973;BME280;65693;49.798;10.968;2023-03-14T10:42:14;96177.13;;;9.20;67.21
49973;BME280;65693;49.798;10.968;2023-03-14T10:44:41;96186.84;;;9.19;67.37
49973;BME280;65693;49.798;10.968;2023-03-14T10:47:18;96184.06;;;9.21;67.40
49973;BME280;65693;49.798;10.968;2023-03-14T10:49:46;96177.81;;;9.22;67.48
49973;BME280;65693;49.798;10.968;2023-03-14T10:52:26;96174.47;;;9.20;67.20
49973;BME280;65693;49.798;10.968;2023-03-14T10:55:10;96169.19;;;9.20;67.71
49973;BME280;65693;49.798;10.968;2023-03-14T10:57:38;96170.97;;;9.19;67.14
49973;BME280;65693;49.798;10.968;2023-03-14T11:00:14;96172.53;;;9.22;67.59
49973;BME280;65693;49.798;10.968;2023-03-14T11:03:01;96175.16;;;9.22;67.12
49973;BME280;65693;49.798;10.968;2023-03-14T11:05:44;96176.13;;;9.21;67.28
49973;BME280;65693;49.798;10.968;2023-03-14T11:08:24;96177.81;;;9.22;67.22
49973;BME280;65693;49.798;10.968;2023-03-14T11:10:54;96159.31;;;9.22;67.28
49973;BME280;65693;49.798;10.968;2023-03-14T11:13:28;96158.47;;;9.21;67.39
49973;BME280;65693;49.798;10.968;2023-03-14T11:16:02;96158.34;;;9.23;67.24
49973;BME280;65693;49.798;10.968;2023-03-14T11:21:41;96161.94;;;9.22;67.08
49973;BME280;65693;49.798;10.968;2023-03-14T11:24:24;96150.53;;;9.21;67.13
49973;BME280;65693;49.798;10.968;2023-03-14T11:27:07;96158.34;;;9.23;67.58
49973;BME280;65693;49.798;10.968;2023-03-14T11:29:41;96155.69;;;9.23;67.41
49973;BME280;65693;49.798;10.968;2023-03-14T11:32:19;96161.66;;;9.25;67.50
49973;BME280;65693;49.798;10.968;2023-03-14T11:34:51;96155.53;;;9.24;67.11
49973;BME280;65693;49.798;10.968;2023-03-14T11:37:30;96150.13;;;9.26;67.13
49973;BME280;65693;49.798;10.968;2023-03-14T11:40:13;96152.75;;;9.26;67.47
49973;BME280;65693;49.798;10.968;2023-03-14T11:42:56;96148.31;;;9.27;67.61
49973;BME280;65693;49.798;10.968;2023-03-14T11:45:34;96146.38;;;9.29;67.03
49973;BME280;65693;49.798;10.968;2023-03-14T11:48:34;96133.97;;;9.29;67.01
49973;BME280;65693;49.798;10.968;2023-03-14T11:51:07;96129.53;;;9.30;67.13
49973;BME280;65693;49.798;10.968;2023-03-14T11:53:45;96134.66;;;9.31;67.09
49973;BME280;65693;49.798;10.968;2023-03-14T11:56:20;96132.00;;;9.31;67.07
49973;BME280;65693;49.798;10.968;2023-03-14T11:58:58;96130.22;;;9.32;67.19
49973;BME280;65693;49.798;10.968;2023-03-14T12:01:34;96122.25;;;9.42;67.07
49973;BME280;65693;49.798;10.968;2023-03-14T12:04:09;96121.16;;;9.44;67.00
49973;BME280;65693;49.798;10.968;2023-03-14T12:06:46;96117.66;;;9.44;67.11
49973;BME280;65693;49.798;10.968;2023-03-14T12:09:18;96116.56;;;9.46;66.95
49973;BME280;65693;49.798;10.968;2023-03-14T12:11:48;96117.53;;;9.45;67.01
49973;BME280;65693;49.798;10.968;2023-03-14T12:14:23;96112.09;;;9.47;66.90
49973;BME280;65693;49.798;10.968;2023-03-14T12:16:55;96113.06;;;9.46;66.51
49973;BME280;65693;49.798;10.968;2023-03-14T12:19:37;96118.34;;;9.46;66.92
49973;BME280;65693;49.798;10.968;2023-03-14T12:22:28;96107.78;;;9.46;67.05
49973;BME280;65693;49.798;10.968;2023-03-14T12:25:00;96107.66;;;9.47;67.08
49973;BME280;65693;49.798;10.968;2023-03-14T12:27:48;96109.44;;;9.47;66.94
49973;BME280;65693;49.798;10.968;2023-03-14T12:30:27;96088.44;;;9.45;67.24
49973;BME280;65693;49.798;10.968;2023-03-14T12:33:29;96102.50;;;9.46;67.27
49973;BME280;65693;49.798;10.968;2023-03-14T12:36:01;96097.19;;;9.46;67.38
49973;BME280;65693;49.798;10.968;2023-03-14T12:38:45;96098.19;;;9.45;67.01
49973;BME280;65693;49.798;10.968;2023-03-14T12:41:20;96100.81;;;9.45;67.11
49973;BME280;65693;49.798;10.968;2023-03-14T12:43:49;96100.00;;;9.44;67.28
49973;BME280;65693;49.798;10.968;2023-03-14T12:46:22;96090.25;;;9.45;67.42
49973;BME280;65693;49.798;10.968;2023-03-14T12:49:04;96099.84;;;9.46;67.44
49973;BME280;65693;49.798;10.968;2023-03-14T12:51:36;96097.19;;;9.46;67.02
49973;BME280;65693;49.798;10.968;2023-03-14T12:54:31;96103.34;;;9.46;67.08
49973;BME280;65693;49.798;10.968;2023-03-14T12:57:14;96098.19;;;9.45;67.13
49973;BME280;65693;49.798;10.968;2023-03-14T12:59:50;96111.41;;;9.45;67.35
49973;BME280;65693;49.798;10.968;2023-03-14T13:02:25;96117.66;;;9.44;67.37
49973;BME280;65693;49.798;10.968;2023-03-14T13:05:10;96121.00;;;9.46;67.19
49973;BME280;65693;49.798;10.968;2023-03-14T13:08:04;96122.97;;;9.44;67.41
49973;BME280;65693;49.798;10.968;2023-03-14T13:10:42;96123.81;;;9.44;67.13
49973;BME280;65693;49.798;10.968;2023-03-14T13:13:20;96124.78;;;9.43;67.31
49973;BME280;65693;49.798;10.968;2023-03-14T13:15:56;96133.53;;;9.44;67.35
49973;BME280;65693;49.798;10.968;2023-03-14T13:18:34;96133.53;;;9.44;67.23
49973;BME280;65693;49.798;10.968;2023-03-14T13:21:10;96133.69;;;9.42;67.36
49973;BME280;65693;49.798;10.968;2023-03-14T13:23:55;96142.31;;;9.44;67.33
49973;BME280;65693;49.798;10.968;2023-03-14T13:26:25;96140.50;;;9.45;67.44
49973;BME280;65693;49.798;10.968;2023-03-14T13:29:09;96136.19;;;9.44;67.27